createdAt,value
2022-10-06T00:01:53.279Z,67.43
2022-10-06T00:04:23.763Z,67.89
2022-10-06T00:06:54.183Z,67.37
2022-10-06T00:09:24.605Z,67.77
2022-10-06T00:11:57.629Z,67.74
2022-10-06T00:14:28.029Z,67.86
2022-10-06T00:16:58.411Z,67.84
2022-10-06T00:19:28.878Z,67.83
2022-10-06T00:21:59.425Z,68.01
2022-10-06T00:24:29.833Z,68.14
2022-10-06T00:27:02.931Z,67.79
2022-10-06T00:29:33.419Z,68.17
2022-10-06T00:32:03.839Z,67.98
2022-10-06T00:34:34.255Z,68.36
2022-10-06T00:37:04.691Z,68.07
2022-10-06T00:39:35.097Z,68.23
2022-10-06T00:42:08.398Z,68.10
2022-10-06T00:44:38.826Z,68.30
2022-10-06T00:47:09.254Z,68.35
2022-10-06T00:49:41.165Z,68.33
2022-10-06T00:52:14.684Z,68.01
2022-10-06T00:54:45.722Z,68.23
2022-10-06T00:57:19.142Z,68.49
2022-10-06T00:59:50.161Z,68.23
2022-10-06T01:02:25.199Z,67.97
2022-10-06T01:05:00.929Z,68.37
2022-10-06T01:07:34.122Z,68.37
2022-10-06T01:10:04.667Z,68.38
2022-10-06T01:12:38.459Z,68.74
2022-10-06T01:15:10.779Z,68.66
2022-10-06T01:17:46.600Z,68.88
2022-10-06T01:20:21.249Z,68.79
2022-10-06T01:22:58.306Z,69.22
2022-10-06T01:25:30.011Z,69.35
2022-10-06T01:28:01.662Z,69.14
2022-10-06T01:30:36.124Z,69.23
2022-10-06T01:33:07.032Z,69.39
2022-10-06T01:35:37.855Z,69.38
2022-10-06T01:38:12.518Z,69.58
2022-10-06T01:40:43.324Z,69.40
2022-10-06T01:43:14.048Z,69.82
2022-10-06T01:45:46.689Z,69.83
2022-10-06T01:48:18.226Z,69.79
2022-10-06T01:50:48.716Z,69.94
2022-10-06T01:53:22.097Z,70.16
2022-10-06T01:55:52.535Z,69.96
2022-10-06T01:58:28.817Z,70.02
2022-10-06T02:00:59.931Z,70.08
2022-10-06T02:03:30.313Z,70.04
2022-10-06T02:06:00.754Z,70.35
2022-10-06T02:08:34.279Z,70.24
2022-10-06T02:11:09.820Z,70.26
2022-10-06T02:13:45.134Z,70.57
2022-10-06T02:16:16.421Z,70.31
2022-10-06T02:18:47.694Z,70.65
2022-10-06T02:21:20.032Z,70.69
2022-10-06T02:23:53.081Z,70.54
2022-10-06T02:26:23.456Z,70.43
2022-10-06T02:28:54.974Z,70.64
2022-10-06T02:31:28.029Z,70.51
2022-10-06T02:33:59.375Z,70.79
2022-10-06T02:36:30.204Z,70.82
2022-10-06T02:39:03.314Z,70.74
2022-10-06T02:41:34.256Z,70.66
2022-10-06T02:44:04.685Z,70.91
2022-10-06T02:46:35.423Z,70.93
2022-10-06T02:49:06.065Z,71.05
2022-10-06T02:51:38.020Z,71.16
2022-10-06T02:54:11.208Z,71.09
2022-10-06T02:56:41.757Z,71.25
2022-10-06T02:59:12.361Z,71.21
2022-10-06T03:01:45.014Z,71.04
2022-10-06T03:04:19.604Z,71.39
2022-10-06T03:06:52.329Z,71.15
2022-10-06T03:09:28.257Z,71.86
2022-10-06T03:11:59.887Z,71.57
2022-10-06T03:14:37.043Z,71.54
2022-10-06T03:17:08.671Z,71.62
2022-10-06T03:19:41.256Z,71.34
2022-10-06T03:22:13.214Z,71.84
2022-10-06T03:24:52.219Z,71.53
2022-10-06T03:27:22.638Z,71.54
2022-10-06T03:29:55.280Z,71.66
2022-10-06T03:32:27.865Z,71.78
2022-10-06T03:34:58.451Z,71.65
2022-10-06T03:37:28.998Z,71.44
2022-10-06T03:40:02.595Z,71.76
2022-10-06T03:42:33.788Z,71.81
2022-10-06T03:45:04.664Z,71.61
2022-10-06T03:47:35.819Z,71.88
2022-10-06T03:50:08.253Z,71.88
2022-10-06T03:52:38.969Z,71.99
2022-10-06T03:55:12.609Z,71.81
2022-10-06T03:57:44.074Z,71.90
2022-10-06T04:00:18.639Z,71.88
2022-10-06T04:02:50.201Z,71.96
2022-10-06T04:05:20.687Z,72.00
2022-10-06T04:07:51.143Z,71.90
2022-10-06T04:10:24.185Z,71.93
2022-10-06T04:12:54.608Z,72.12
2022-10-06T04:15:25.474Z,71.90
2022-10-06T04:17:57.973Z,72.08
2022-10-06T04:20:28.629Z,71.88
2022-10-06T04:22:59.137Z,71.65
2022-10-06T04:25:32.381Z,72.02
2022-10-06T04:28:03.213Z,71.84
2022-10-06T04:30:33.605Z,71.82
2022-10-06T04:33:04.194Z,71.85
2022-10-06T04:35:34.703Z,72.02
2022-10-06T04:38:05.809Z,72.27
2022-10-06T04:40:39.035Z,72.20
2022-10-06T04:43:09.525Z,72.20
2022-10-06T04:45:40.218Z,71.96
2022-10-06T04:48:10.772Z,72.21
2022-10-06T04:50:41.387Z,72.48
2022-10-06T04:53:14.397Z,72.33
2022-10-06T04:55:48.567Z,72.67
2022-10-06T04:58:19.360Z,72.66
2022-10-06T05:00:52.089Z,72.28
2022-10-06T05:03:22.711Z,72.38
2022-10-06T05:05:54.185Z,72.32
2022-10-06T05:08:24.620Z,72.03
2022-10-06T05:11:02.384Z,72.25
2022-10-06T05:13:33.646Z,72.23
2022-10-06T05:16:05.622Z,72.34
2022-10-06T05:18:38.230Z,72.37
2022-10-06T05:21:11.770Z,72.13
2022-10-06T05:23:44.460Z,72.43
2022-10-06T05:26:20.065Z,72.57
2022-10-06T05:28:51.682Z,72.21
2022-10-06T05:31:24.777Z,72.42
2022-10-06T05:33:55.395Z,72.25
2022-10-06T05:36:28.267Z,71.88
2022-10-06T05:38:59.662Z,71.55
2022-10-06T05:41:37.947Z,71.59
2022-10-06T05:44:11.003Z,70.96
2022-10-06T05:46:43.532Z,70.74
2022-10-06T05:49:13.996Z,70.49
2022-10-06T05:51:59.478Z,70.12
2022-10-06T05:54:32.351Z,69.54
2022-10-06T05:57:06.083Z,69.29
2022-10-06T05:59:37.620Z,68.22
2022-10-06T06:02:09.428Z,67.75
2022-10-06T06:04:45.763Z,67.25
2022-10-06T06:07:16.962Z,66.51
2022-10-06T06:09:48.847Z,66.26
2022-10-06T06:12:21.922Z,65.27
2022-10-06T06:15:08.239Z,64.67
2022-10-06T06:17:43.958Z,63.20
2022-10-06T06:20:15.548Z,62.16
2022-10-06T06:22:46.068Z,61.34
2022-10-06T06:25:16.517Z,59.27
2022-10-06T06:27:50.006Z,58.37
2022-10-06T06:30:21.417Z,57.25
2022-10-06T06:32:52.541Z,55.86
2022-10-06T06:35:23.050Z,54.67
2022-10-06T06:37:53.638Z,53.85
2022-10-06T06:40:24.280Z,52.13
2022-10-06T06:42:58.176Z,50.06
2022-10-06T06:45:41.794Z,50.14
2022-10-06T06:48:22.886Z,49.37
2022-10-06T06:51:00.359Z,48.55
2022-10-06T06:53:34.368Z,47.76
2022-10-06T06:56:07.016Z,46.95
2022-10-06T06:58:42.333Z,46.62
2022-10-06T07:01:15.483Z,46.31
2022-10-06T07:03:57.994Z,45.89
2022-10-06T07:06:33.307Z,45.18
2022-10-06T07:09:06.030Z,44.91
2022-10-06T07:11:38.823Z,44.72
2022-10-06T07:14:16.927Z,44.21
2022-10-06T07:17:01.241Z,44.02
2022-10-06T07:19:44.817Z,42.44
2022-10-06T07:22:32.501Z,41.38
2022-10-06T07:25:11.813Z,40.82
2022-10-06T07:27:47.075Z,40.46
2022-10-06T07:30:25.849Z,39.35
2022-10-06T07:33:09.441Z,39.10
2022-10-06T07:35:42.661Z,37.82
2022-10-06T07:38:14.126Z,37.38
2022-10-06T07:43:50.601Z,36.69
2022-10-06T07:46:23.991Z,36.32
2022-10-06T07:49:05.323Z,35.88
2022-10-06T07:51:36.195Z,35.09
2022-10-06T07:54:07.166Z,35.37
2022-10-06T07:56:45.007Z,34.16
2022-10-06T07:59:15.333Z,34.48
2022-10-06T08:01:51.535Z,34.11
2022-10-06T08:04:22.070Z,33.57
2022-10-06T08:06:52.701Z,33.35
2022-10-06T08:09:23.127Z,32.93
2022-10-06T08:11:53.672Z,33.23
2022-10-06T08:14:24.394Z,33.40
2022-10-06T08:16:57.714Z,32.34
2022-10-06T08:19:28.244Z,32.92
2022-10-06T08:22:02.459Z,32.87
2022-10-06T08:25:01.129Z,32.25
2022-10-06T08:27:26.778Z,33.21
2022-10-06T08:29:57.560Z,33.03
2022-10-06T08:32:30.612Z,32.27
2022-10-06T08:35:01.011Z,32.20
2022-10-06T08:37:31.443Z,32.23
2022-10-06T08:40:01.796Z,32.75
2022-10-06T08:42:41.593Z,32.59
2022-10-06T08:45:17.641Z,32.67
2022-10-06T08:47:59.231Z,31.76
2022-10-06T08:50:33.095Z,31.35
2022-10-06T08:53:15.623Z,31.12
2022-10-06T08:55:51.612Z,31.55
2022-10-06T08:58:32.447Z,31.56
2022-10-06T09:01:17.191Z,31.87
2022-10-06T09:03:52.569Z,32.20
2022-10-06T09:06:47.380Z,32.49
2022-10-06T09:09:28.655Z,32.23
2022-10-06T09:12:09.723Z,32.45
2022-10-06T09:14:48.260Z,32.88
2022-10-06T09:17:26.419Z,32.24
2022-10-06T09:20:03.417Z,32.55
2022-10-06T09:22:35.295Z,33.08
2022-10-06T09:25:18.633Z,32.60
2022-10-06T09:27:53.146Z,32.96
2022-10-06T09:30:24.211Z,32.25
2022-10-06T09:33:00.772Z,32.40
2022-10-06T09:35:37.310Z,31.73
2022-10-06T09:38:09.444Z,32.12
2022-10-06T09:40:44.650Z,32.31
2022-10-06T09:43:24.018Z,32.73
2022-10-06T09:45:56.425Z,32.51
2022-10-06T09:48:30.371Z,32.55
2022-10-06T09:51:17.371Z,32.54
2022-10-06T09:54:10.620Z,31.88
2022-10-06T09:56:45.041Z,32.34
2022-10-06T09:59:23.560Z,32.33
2022-10-06T10:01:56.581Z,32.28
2022-10-06T10:04:30.561Z,32.03
2022-10-06T10:07:19.357Z,32.05
2022-10-06T10:09:49.848Z,32.16
2022-10-06T10:12:28.315Z,32.71
2022-10-06T10:15:07.477Z,32.71
2022-10-06T10:17:47.941Z,33.61
2022-10-06T10:20:29.186Z,33.08
2022-10-06T10:23:05.341Z,32.91
2022-10-06T10:25:55.332Z,33.39
2022-10-06T10:28:51.858Z,33.74
2022-10-06T10:31:31.600Z,34.68
2022-10-06T10:34:23.915Z,34.10
2022-10-06T10:36:59.304Z,34.40
2022-10-06T10:39:39.058Z,34.31
2022-10-06T10:42:16.796Z,34.05
2022-10-06T10:44:55.690Z,34.84
2022-10-06T10:47:30.980Z,34.50
2022-10-06T10:50:08.541Z,34.25
2022-10-06T10:52:44.579Z,34.16
2022-10-06T10:55:29.898Z,33.39
2022-10-06T10:58:04.495Z,33.74
2022-10-06T11:00:44.402Z,32.77
2022-10-06T11:03:14.969Z,33.50
2022-10-06T11:06:09.021Z,32.36
2022-10-06T11:08:47.385Z,32.58
2022-10-06T11:11:35.005Z,31.52
2022-10-06T11:14:12.551Z,32.28
2022-10-06T11:16:49.826Z,31.22
2022-10-06T11:19:29.623Z,30.91
2022-10-06T11:22:05.889Z,30.80
2022-10-06T11:24:43.490Z,31.17
2022-10-06T11:27:28.404Z,30.65
2022-10-06T11:30:08.808Z,29.94
2022-10-06T11:32:52.245Z,29.33
2022-10-06T11:35:27.134Z,29.66
2022-10-06T11:38:03.028Z,28.95
2022-10-06T11:40:50.938Z,28.94
2022-10-06T11:43:34.495Z,28.73
2022-10-06T11:46:13.106Z,28.62
2022-10-06T11:48:43.959Z,28.59
2022-10-06T11:51:33.231Z,27.40
2022-10-06T11:54:03.947Z,28.20
2022-10-06T11:56:43.141Z,27.09
2022-10-06T11:59:28.693Z,26.74
2022-10-06T12:02:04.209Z,27.20
2022-10-06T12:04:34.847Z,26.70
2022-10-06T12:07:07.070Z,25.62
2022-10-06T12:09:55.418Z,25.01
2022-10-06T12:13:13.977Z,24.36
2022-10-06T12:17:06.028Z,23.62
2022-10-06T12:19:19.802Z,23.89
2022-10-06T12:21:58.060Z,23.11
2022-10-06T12:24:37.539Z,22.94
2022-10-06T12:27:26.307Z,22.87
2022-10-06T12:30:05.291Z,22.98
2022-10-06T12:32:49.347Z,23.17
2022-10-06T12:35:34.363Z,23.11
2022-10-06T12:38:07.751Z,23.64
2022-10-06T12:40:49.695Z,24.24
2022-10-06T12:43:37.572Z,23.88
2022-10-06T12:46:17.099Z,24.50
2022-10-06T12:48:58.963Z,23.91
2022-10-06T12:51:35.171Z,24.00
2022-10-06T12:54:15.511Z,24.25
2022-10-06T12:56:46.933Z,24.59
2022-10-06T12:59:27.584Z,24.41
2022-10-06T13:02:01.035Z,24.85
2022-10-06T13:04:41.278Z,24.79
2022-10-06T13:07:22.209Z,24.55
2022-10-06T13:09:55.633Z,25.11
2022-10-06T13:12:34.764Z,25.23
2022-10-06T13:15:20.236Z,25.38
2022-10-06T13:17:54.114Z,25.59
2022-10-06T13:20:38.543Z,25.65
2022-10-06T13:23:28.814Z,25.82
2022-10-06T13:26:01.515Z,25.77
2022-10-06T13:28:47.734Z,25.62
2022-10-06T13:31:23.685Z,26.32
2022-10-06T13:33:57.507Z,26.69
2022-10-06T13:36:31.765Z,26.62
2022-10-06T13:39:02.668Z,26.49
2022-10-06T13:41:35.126Z,26.23
2022-10-06T13:44:22.812Z,26.82
2022-10-06T13:46:56.471Z,26.68
2022-10-06T13:49:31.443Z,27.00
2022-10-06T13:52:11.339Z,27.38
2022-10-06T13:54:49.311Z,27.52
2022-10-06T13:57:41.984Z,27.15
2022-10-06T14:00:24.554Z,27.53
2022-10-06T14:02:57.508Z,27.50
2022-10-06T14:05:31.761Z,27.86
2022-10-06T14:08:20.164Z,27.63
2022-10-06T14:10:55.979Z,27.80
2022-10-06T14:13:29.731Z,27.63
2022-10-06T14:16:03.605Z,27.47
2022-10-06T14:18:40.082Z,27.70
2022-10-06T14:21:21.561Z,27.83
2022-10-06T14:23:56.142Z,28.12
2022-10-06T14:26:29.051Z,28.17
2022-10-06T14:29:00.910Z,28.92
2022-10-06T14:31:34.207Z,29.01
2022-10-06T14:34:05.982Z,28.98
2022-10-06T14:36:39.914Z,29.18
2022-10-06T14:39:15.930Z,29.64
2022-10-06T14:41:46.703Z,29.67
2022-10-06T14:44:17.549Z,30.08
2022-10-06T14:46:52.628Z,30.91
2022-10-06T14:49:23.120Z,31.52
2022-10-06T14:51:54.068Z,31.46
2022-10-06T14:54:27.313Z,31.93
2022-10-06T14:56:57.834Z,31.77
2022-10-06T14:59:28.286Z,32.30
2022-10-06T15:01:58.725Z,32.26
2022-10-06T15:04:29.332Z,32.99
2022-10-06T15:07:12.085Z,33.17
2022-10-06T15:09:45.682Z,33.80
2022-10-06T15:12:16.149Z,33.91
2022-10-06T15:14:46.569Z,33.56
2022-10-06T15:17:16.997Z,34.40
2022-10-06T15:19:47.422Z,34.31
2022-10-06T15:22:17.987Z,34.84
2022-10-06T15:24:51.655Z,34.83
2022-10-06T15:27:34.432Z,35.71
2022-10-06T15:30:04.895Z,35.66
2022-10-06T15:32:35.851Z,36.21
2022-10-06T15:35:06.270Z,36.56
2022-10-06T15:37:37.049Z,36.88
2022-10-06T15:40:11.176Z,36.85
2022-10-06T15:42:41.601Z,37.19
2022-10-06T15:45:13.304Z,37.12
2022-10-06T15:47:43.928Z,37.81
2022-10-06T15:50:18.675Z,37.85
2022-10-06T15:52:49.361Z,38.67
2022-10-06T15:55:22.957Z,38.12
2022-10-06T15:57:53.347Z,38.52
2022-10-06T16:00:23.869Z,38.41
2022-10-06T16:02:54.408Z,38.66
2022-10-06T16:05:49.464Z,38.60
2022-10-06T16:08:19.896Z,39.02
2022-10-06T16:10:56.221Z,39.38
2022-10-06T16:13:26.645Z,39.67
2022-10-06T16:15:57.264Z,39.76
2022-10-06T16:18:28.736Z,40.28
2022-10-06T16:20:59.215Z,40.07
2022-10-06T16:23:29.769Z,40.47
2022-10-06T16:26:04.787Z,40.53
2022-10-06T16:28:35.973Z,41.16
2022-10-06T16:31:06.652Z,40.74
2022-10-06T16:33:37.165Z,41.13
2022-10-06T16:36:08.201Z,41.08
2022-10-06T16:38:38.734Z,41.21
2022-10-06T16:41:12.800Z,41.89
2022-10-06T16:43:44.848Z,41.88
2022-10-06T16:46:17.796Z,41.98
2022-10-06T16:48:50.117Z,42.25
2022-10-06T16:51:22.391Z,42.37
2022-10-06T16:53:54.851Z,42.74
2022-10-06T16:56:30.309Z,42.93
2022-10-06T16:59:03.950Z,42.87
2022-10-06T17:01:37.144Z,43.00
2022-10-06T17:04:09.705Z,43.38
2022-10-06T17:06:43.062Z,42.95
2022-10-06T17:09:16.477Z,43.40
2022-10-06T17:11:51.493Z,43.58
2022-10-06T17:14:22.746Z,43.80
2022-10-06T17:16:54.816Z,43.94
2022-10-06T17:19:30.386Z,44.08
2022-10-06T17:22:00.940Z,44.12
2022-10-06T17:24:31.923Z,44.30
2022-10-06T17:27:05.245Z,44.70
2022-10-06T17:29:35.636Z,44.59
2022-10-06T17:32:06.165Z,44.75
2022-10-06T17:34:36.906Z,45.05
2022-10-06T17:37:07.820Z,45.20
2022-10-06T17:39:38.414Z,45.75
2022-10-06T17:42:13.907Z,45.75
2022-10-06T17:44:44.972Z,45.99
2022-10-06T17:47:15.429Z,46.18
2022-10-06T17:49:46.114Z,46.55
2022-10-06T17:52:19.562Z,46.65
2022-10-06T17:54:56.776Z,47.17
2022-10-06T17:57:30.659Z,47.29
2022-10-06T18:00:01.128Z,47.27
2022-10-06T18:02:31.826Z,47.55
2022-10-06T18:05:02.473Z,48.16
2022-10-06T18:07:33.091Z,48.22
2022-10-06T18:10:15.803Z,48.59
2022-10-06T18:12:48.861Z,48.74
2022-10-06T18:15:19.516Z,48.61
2022-10-06T18:17:52.725Z,49.14
2022-10-06T18:20:23.337Z,49.22
2022-10-06T18:22:53.745Z,49.45
2022-10-06T18:25:26.959Z,49.76
2022-10-06T18:28:00.104Z,49.77
2022-10-06T18:30:31.246Z,49.95
2022-10-06T18:36:14.834Z,50.18
2022-10-06T18:38:47.572Z,50.50
2022-10-06T18:41:20.116Z,50.26
2022-10-06T18:43:53.943Z,50.61
2022-10-06T18:46:37.334Z,50.42
2022-10-06T18:49:12.917Z,50.90
2022-10-06T18:51:45.265Z,50.97
2022-10-06T18:54:17.426Z,51.30
2022-10-06T18:56:51.845Z,51.14
2022-10-06T18:59:26.921Z,51.28
2022-10-06T19:01:58.385Z,51.48
2022-10-06T19:04:29.458Z,51.52
2022-10-06T19:06:59.858Z,51.79
2022-10-06T19:09:30.247Z,51.94
2022-10-06T19:12:02.078Z,51.91
2022-10-06T19:14:40.777Z,52.13
2022-10-06T19:17:14.994Z,52.22
2022-10-06T19:19:46.165Z,52.40
2022-10-06T19:22:17.329Z,52.55
2022-10-06T19:24:48.799Z,52.72
2022-10-06T19:27:24.351Z,52.70
2022-10-06T19:29:57.898Z,53.76
2022-10-06T19:32:31.284Z,53.25
2022-10-06T19:35:06.358Z,53.20
2022-10-06T19:37:39.821Z,53.21
2022-10-06T19:40:11.569Z,53.49
2022-10-06T19:42:48.506Z,53.89
2022-10-06T19:45:21.714Z,53.87
2022-10-06T19:47:52.313Z,53.96
2022-10-06T19:50:22.865Z,54.17
2022-10-06T19:52:53.684Z,54.03
2022-10-06T19:55:24.344Z,54.20
2022-10-06T19:57:54.831Z,54.51
2022-10-06T20:00:27.996Z,54.91
2022-10-06T20:02:58.429Z,54.79
2022-10-06T20:05:28.932Z,54.80
2022-10-06T20:07:59.372Z,54.91
2022-10-06T20:10:29.850Z,54.94
2022-10-06T20:13:00.278Z,55.05
2022-10-06T20:15:37.464Z,55.39
2022-10-06T20:18:08.562Z,55.45
2022-10-06T20:20:39.083Z,55.52
2022-10-06T20:23:09.626Z,55.62
2022-10-06T20:25:40.141Z,55.92
2022-10-06T20:28:11.550Z,56.04
2022-10-06T20:30:50.120Z,56.15
2022-10-06T20:33:20.673Z,56.55
2022-10-06T20:35:51.071Z,56.50
2022-10-06T20:38:41.679Z,56.78
2022-10-06T20:41:09.652Z,56.68
2022-10-06T20:43:41.768Z,56.71
2022-10-06T20:46:14.852Z,56.81
2022-10-06T20:48:45.392Z,57.13
2022-10-06T20:51:16.224Z,57.05
2022-10-06T20:53:47.660Z,57.25
2022-10-06T20:56:19.027Z,57.34
2022-10-06T20:58:50.257Z,57.46
2022-10-06T21:01:24.972Z,57.58
2022-10-06T21:03:56.009Z,57.70
2022-10-06T21:06:27.209Z,58.21
2022-10-06T21:08:58.770Z,58.30
2022-10-06T21:11:29.185Z,58.31
2022-10-06T21:13:59.715Z,58.18
2022-10-06T21:16:34.967Z,58.52
2022-10-06T21:19:08.195Z,58.37
2022-10-06T21:21:40.231Z,58.38
2022-10-06T21:24:11.272Z,58.70
2022-10-06T21:26:42.641Z,59.01
2022-10-06T21:29:15.738Z,58.66
2022-10-06T21:31:49.423Z,59.03
2022-10-06T21:34:19.817Z,59.00
2022-10-06T21:36:50.205Z,59.40
2022-10-06T21:39:20.788Z,59.13
2022-10-06T21:41:51.251Z,59.15
2022-10-06T21:44:22.252Z,59.27
2022-10-06T21:46:58.888Z,59.44
2022-10-06T21:49:29.404Z,59.27
2022-10-06T21:52:04.824Z,59.36
2022-10-06T21:54:35.829Z,59.76
2022-10-06T21:57:08.198Z,59.89
2022-10-06T21:59:38.627Z,59.70
2022-10-06T22:02:11.777Z,60.02
2022-10-06T22:04:42.455Z,60.12
2022-10-06T22:07:12.903Z,60.10
2022-10-06T22:09:43.351Z,60.42
2022-10-06T22:12:14.007Z,61.00
2022-10-06T22:14:44.417Z,60.60
2022-10-06T22:17:17.476Z,60.85
2022-10-06T22:19:47.903Z,60.96
2022-10-06T22:22:18.265Z,60.98
2022-10-06T22:24:48.707Z,61.13
2022-10-06T22:27:19.087Z,61.50
2022-10-06T22:29:49.489Z,61.21
2022-10-06T22:32:23.446Z,61.52
2022-10-06T22:34:54.196Z,61.52
2022-10-06T22:37:24.543Z,61.97
2022-10-06T22:39:54.935Z,61.65
2022-10-06T22:42:25.321Z,61.98
2022-10-06T22:44:55.674Z,62.13
2022-10-06T22:47:28.729Z,62.23
2022-10-06T22:49:59.275Z,62.06
2022-10-06T22:52:29.687Z,62.22
2022-10-06T22:55:00.068Z,62.45
2022-10-06T22:57:30.454Z,62.56
2022-10-06T23:00:00.888Z,62.74
2022-10-06T23:02:34.946Z,62.63
2022-10-06T23:05:05.384Z,62.36
2022-10-06T23:07:35.919Z,62.45
2022-10-06T23:10:06.550Z,63.07
2022-10-06T23:12:37.181Z,63.17
2022-10-06T23:15:11.706Z,62.69
2022-10-06T23:17:45.345Z,63.09
2022-10-06T23:20:16.140Z,63.21
2022-10-06T23:22:46.807Z,62.97
2022-10-06T23:25:17.236Z,63.16
2022-10-06T23:27:47.829Z,63.33
2022-10-06T23:30:18.445Z,63.42
2022-10-06T23:32:51.577Z,63.51
2022-10-06T23:35:21.942Z,63.79
2022-10-06T23:37:52.344Z,63.89
2022-10-06T23:40:22.708Z,63.87
2022-10-06T23:42:53.343Z,63.98
2022-10-06T23:45:26.269Z,64.14
2022-10-06T23:48:00.323Z,64.15
2022-10-06T23:50:30.700Z,64.00
2022-10-06T23:53:01.150Z,64.26
2022-10-06T23:55:31.635Z,64.30
2022-10-06T23:58:02.483Z,64.36
